El Reno, Oklahoma
Current Conditions -  °F | °C
As of 7:55 AM on Monday 24 Nov 2014 (Local Time) from KRQO Reporting Station
Clear Clear  
Wind Chill: 23°   Ceiling: Unl
Heat Index: 32°   Visibility: 10mi
Dew Point: 27°   Wind: 12mph
Humidity: 80%   Direction: 250°WSW
Pressure: 29.95"   Gusts: NA
Location:  35.53°N, 97.96°W
Report Text: KRQO 241355Z AUTO 25010KT 10SM CLR 00/M03 A2995 RMK AO2
Loading
Personal Weather Stations






























Interactive Weather Map New forecast layout! Learn more

10-Day Weather Forecast

Advertisements
Track Severe Weather on mobile